sensor_id;sensor_type;location;lat;lon;timestamp;P1;durP1;ratioP1;P2;durP2;ratioP2
65174;SDS011;51761;42.126;24.752;2023-03-14T00:01:26;8.90;;;3.83;;
65174;SDS011;51761;42.126;24.752;2023-03-14T00:03:51;6.82;;;3.50;;
65174;SDS011;51761;42.126;24.752;2023-03-14T00:06:17;8.57;;;3.95;;
65174;SDS011;51761;42.126;24.752;2023-03-14T00:08:44;8.98;;;3.80;;
65174;SDS011;51761;42.126;24.752;2023-03-14T00:11:13;9.45;;;3.33;;
65174;SDS011;51761;42.126;24.752;2023-03-14T00:13:40;12.30;;;4.82;;
65174;SDS011;51761;42.126;24.752;2023-03-14T00:16:12;10.80;;;3.88;;
65174;SDS011;51761;42.126;24.752;2023-03-14T00:18:38;23.58;;;5.45;;
65174;SDS011;51761;42.126;24.752;2023-03-14T00:21:04;14.77;;;4.70;;
65174;SDS011;51761;42.126;24.752;2023-03-14T00:23:32;13.10;;;5.43;;
65174;SDS011;51761;42.126;24.752;2023-03-14T00:26:03;16.35;;;5.07;;
65174;SDS011;51761;42.126;24.752;2023-03-14T00:28:33;11.75;;;4.68;;
65174;SDS011;51761;42.126;24.752;2023-03-14T00:30:58;9.82;;;5.22;;
65174;SDS011;51761;42.126;24.752;2023-03-14T00:33:24;11.05;;;6.28;;
65174;SDS011;51761;42.126;24.752;2023-03-14T00:35:56;12.40;;;5.70;;
65174;SDS011;51761;42.126;24.752;2023-03-14T00:40:50;11.73;;;5.85;;
65174;SDS011;51761;42.126;24.752;2023-03-14T00:43:17;19.75;;;6.82;;
65174;SDS011;51761;42.126;24.752;2023-03-14T00:45:42;15.50;;;6.35;;
65174;SDS011;51761;42.126;24.752;2023-03-14T00:48:09;12.48;;;5.45;;
65174;SDS011;51761;42.126;24.752;2023-03-14T00:50:34;15.48;;;5.82;;
65174;SDS011;51761;42.126;24.752;2023-03-14T00:53:00;11.40;;;6.30;;
65174;SDS011;51761;42.126;24.752;2023-03-14T00:55:25;17.60;;;5.93;;
65174;SDS011;51761;42.126;24.752;2023-03-14T00:57:51;15.02;;;6.55;;
65174;SDS011;51761;42.126;24.752;2023-03-14T01:00:16;33.65;;;7.93;;
65174;SDS011;51761;42.126;24.752;2023-03-14T01:02:42;19.35;;;7.72;;
65174;SDS011;51761;42.126;24.752;2023-03-14T01:05:08;23.23;;;7.85;;
65174;SDS011;51761;42.126;24.752;2023-03-14T01:07:35;21.13;;;7.32;;
65174;SDS011;51761;42.126;24.752;2023-03-14T01:10:01;20.40;;;7.38;;
65174;SDS011;51761;42.126;24.752;2023-03-14T01:12:28;23.13;;;7.60;;
65174;SDS011;51761;42.126;24.752;2023-03-14T01:14:53;20.65;;;8.10;;
65174;SDS011;51761;42.126;24.752;2023-03-14T01:17:19;17.23;;;7.38;;
65174;SDS011;51761;42.126;24.752;2023-03-14T01:19:44;18.40;;;6.55;;
65174;SDS011;51761;42.126;24.752;2023-03-14T01:22:10;15.00;;;7.43;;
65174;SDS011;51761;42.126;24.752;2023-03-14T01:24:36;15.10;;;6.38;;
65174;SDS011;51761;42.126;24.752;2023-03-14T01:27:02;17.33;;;6.20;;
65174;SDS011;51761;42.126;24.752;2023-03-14T01:29:28;14.85;;;6.32;;
65174;SDS011;51761;42.126;24.752;2023-03-14T01:31:53;15.07;;;6.68;;
65174;SDS011;51761;42.126;24.752;2023-03-14T01:34:19;13.07;;;6.15;;
65174;SDS011;51761;42.126;24.752;2023-03-14T01:36:44;14.23;;;6.25;;
65174;SDS011;51761;42.126;24.752;2023-03-14T01:39:09;21.80;;;9.65;;
65174;SDS011;51761;42.126;24.752;2023-03-14T01:41:35;17.08;;;7.07;;
65174;SDS011;51761;42.126;24.752;2023-03-14T01:44:01;13.00;;;6.18;;
65174;SDS011;51761;42.126;24.752;2023-03-14T01:54:16;15.55;;;6.63;;
65174;SDS011;51761;42.126;24.752;2023-03-14T01:57:20;16.45;;;7.03;;
65174;SDS011;51761;42.126;24.752;2023-03-14T02:00:00;14.13;;;7.18;;
65174;SDS011;51761;42.126;24.752;2023-03-14T02:02:43;19.00;;;8.80;;
65174;SDS011;51761;42.126;24.752;2023-03-14T02:05:11;17.25;;;7.93;;
65174;SDS011;51761;42.126;24.752;2023-03-14T02:10:14;19.15;;;8.57;;
65174;SDS011;51761;42.126;24.752;2023-03-14T02:12:41;23.88;;;9.30;;
65174;SDS011;51761;42.126;24.752;2023-03-14T02:15:07;24.63;;;10.10;;
65174;SDS011;51761;42.126;24.752;2023-03-14T02:17:33;20.40;;;10.13;;
65174;SDS011;51761;42.126;24.752;2023-03-14T02:23:01;22.35;;;8.77;;
65174;SDS011;51761;42.126;24.752;2023-03-14T02:25:33;19.75;;;8.93;;
65174;SDS011;51761;42.126;24.752;2023-03-14T02:28:11;29.13;;;9.63;;
65174;SDS011;51761;42.126;24.752;2023-03-14T02:30:37;33.25;;;9.55;;
65174;SDS011;51761;42.126;24.752;2023-03-14T02:33:13;24.25;;;9.55;;
65174;SDS011;51761;42.126;24.752;2023-03-14T02:40:46;18.67;;;7.93;;
65174;SDS011;51761;42.126;24.752;2023-03-14T02:43:11;28.17;;;9.23;;
65174;SDS011;51761;42.126;24.752;2023-03-14T02:45:44;24.98;;;8.75;;
65174;SDS011;51761;42.126;24.752;2023-03-14T02:50:43;21.77;;;8.05;;
65174;SDS011;51761;42.126;24.752;2023-03-14T02:53:11;15.95;;;8.55;;
65174;SDS011;51761;42.126;24.752;2023-03-14T02:55:38;22.15;;;9.18;;
65174;SDS011;51761;42.126;24.752;2023-03-14T02:58:03;17.42;;;8.55;;
65174;SDS011;51761;42.126;24.752;2023-03-14T03:00:28;18.75;;;8.10;;
65174;SDS011;51761;42.126;24.752;2023-03-14T03:02:55;15.55;;;8.43;;
65174;SDS011;51761;42.126;24.752;2023-03-14T03:05:21;18.30;;;8.90;;
65174;SDS011;51761;42.126;24.752;2023-03-14T03:07:46;19.08;;;8.82;;
65174;SDS011;51761;42.126;24.752;2023-03-14T03:10:12;19.42;;;9.75;;
65174;SDS011;51761;42.126;24.752;2023-03-14T03:12:37;20.20;;;8.93;;
65174;SDS011;51761;42.126;24.752;2023-03-14T03:15:03;19.15;;;9.07;;
65174;SDS011;51761;42.126;24.752;2023-03-14T03:17:29;22.13;;;9.45;;
65174;SDS011;51761;42.126;24.752;2023-03-14T03:19:54;20.50;;;9.00;;
65174;SDS011;51761;42.126;24.752;2023-03-14T03:22:19;21.08;;;9.35;;
65174;SDS011;51761;42.126;24.752;2023-03-14T03:24:45;21.00;;;9.07;;
65174;SDS011;51761;42.126;24.752;2023-03-14T03:27:10;19.92;;;9.75;;
65174;SDS011;51761;42.126;24.752;2023-03-14T03:29:36;18.77;;;8.73;;
65174;SDS011;51761;42.126;24.752;2023-03-14T03:32:01;19.80;;;9.48;;
65174;SDS011;51761;42.126;24.752;2023-03-14T03:34:27;19.05;;;9.07;;
65174;SDS011;51761;42.126;24.752;2023-03-14T03:36:55;21.75;;;9.52;;
65174;SDS011;51761;42.126;24.752;2023-03-14T03:39:21;19.58;;;9.20;;
65174;SDS011;51761;42.126;24.752;2023-03-14T03:41:47;17.92;;;9.90;;
65174;SDS011;51761;42.126;24.752;2023-03-14T03:44:12;24.15;;;10.32;;
65174;SDS011;51761;42.126;24.752;2023-03-14T03:46:38;26.00;;;9.98;;
65174;SDS011;51761;42.126;24.752;2023-03-14T03:49:04;21.25;;;9.77;;
65174;SDS011;51761;42.126;24.752;2023-03-14T03:51:29;20.85;;;9.48;;
65174;SDS011;51761;42.126;24.752;2023-03-14T03:53:55;23.67;;;10.43;;
65174;SDS011;51761;42.126;24.752;2023-03-14T03:56:22;24.98;;;10.23;;
65174;SDS011;51761;42.126;24.752;2023-03-14T03:58:47;23.95;;;10.68;;
65174;SDS011;51761;42.126;24.752;2023-03-14T04:01:13;25.80;;;10.85;;
65174;SDS011;51761;42.126;24.752;2023-03-14T04:03:38;28.67;;;10.45;;
65174;SDS011;51761;42.126;24.752;2023-03-14T04:06:05;23.45;;;10.23;;
65174;SDS011;51761;42.126;24.752;2023-03-14T04:08:32;21.23;;;10.30;;
65174;SDS011;51761;42.126;24.752;2023-03-14T04:10:58;34.10;;;10.55;;
65174;SDS011;51761;42.126;24.752;2023-03-14T04:13:25;28.65;;;9.98;;
65174;SDS011;51761;42.126;24.752;2023-03-14T04:15:52;29.25;;;10.48;;
65174;SDS011;51761;42.126;24.752;2023-03-14T04:18:18;30.08;;;14.93;;
65174;SDS011;51761;42.126;24.752;2023-03-14T04:20:44;24.30;;;10.55;;
65174;SDS011;51761;42.126;24.752;2023-03-14T04:23:09;29.75;;;10.25;;
65174;SDS011;51761;42.126;24.752;2023-03-14T04:25:35;24.15;;;9.85;;
65174;SDS011;51761;42.126;24.752;2023-03-14T04:28:01;26.30;;;10.65;;
65174;SDS011;51761;42.126;24.752;2023-03-14T04:30:28;33.50;;;10.88;;
65174;SDS011;51761;42.126;24.752;2023-03-14T04:32:53;27.23;;;11.68;;
65174;SDS011;51761;42.126;24.752;2023-03-14T04:35:19;31.17;;;12.57;;
65174;SDS011;51761;42.126;24.752;2023-03-14T04:37:44;26.88;;;12.20;;
65174;SDS011;51761;42.126;24.752;2023-03-14T04:40:14;31.33;;;11.88;;
65174;SDS011;51761;42.126;24.752;2023-03-14T04:42:40;27.95;;;11.60;;
65174;SDS011;51761;42.126;24.752;2023-03-14T04:45:06;39.90;;;12.77;;
65174;SDS011;51761;42.126;24.752;2023-03-14T04:47:32;38.83;;;12.07;;
65174;SDS011;51761;42.126;24.752;2023-03-14T04:49:57;39.08;;;12.10;;
65174;SDS011;51761;42.126;24.752;2023-03-14T04:52:23;40.28;;;12.50;;
65174;SDS011;51761;42.126;24.752;2023-03-14T04:54:48;29.80;;;12.07;;
65174;SDS011;51761;42.126;24.752;2023-03-14T04:57:14;36.63;;;11.35;;
65174;SDS011;51761;42.126;24.752;2023-03-14T04:59:39;33.30;;;11.30;;
65174;SDS011;51761;42.126;24.752;2023-03-14T05:02:05;33.60;;;11.18;;
65174;SDS011;51761;42.126;24.752;2023-03-14T05:04:30;41.55;;;10.93;;
65174;SDS011;51761;42.126;24.752;2023-03-14T05:06:58;41.22;;;12.45;;
65174;SDS011;51761;42.126;24.752;2023-03-14T05:09:23;35.83;;;12.05;;
65174;SDS011;51761;42.126;24.752;2023-03-14T05:11:49;30.17;;;11.15;;
65174;SDS011;51761;42.126;24.752;2023-03-14T05:14:14;45.08;;;13.00;;
65174;SDS011;51761;42.126;24.752;2023-03-14T05:16:40;40.40;;;12.77;;
65174;SDS011;51761;42.126;24.752;2023-03-14T05:19:05;37.53;;;12.32;;
65174;SDS011;51761;42.126;24.752;2023-03-14T05:21:31;47.97;;;16.52;;
65174;SDS011;51761;42.126;24.752;2023-03-14T05:23:56;58.42;;;14.32;;
65174;SDS011;51761;42.126;24.752;2023-03-14T05:26:22;52.20;;;12.82;;
65174;SDS011;51761;42.126;24.752;2023-03-14T05:28:48;41.00;;;16.83;;
65174;SDS011;51761;42.126;24.752;2023-03-14T05:31:13;62.03;;;19.52;;
65174;SDS011;51761;42.126;24.752;2023-03-14T05:33:39;90.07;;;33.80;;
65174;SDS011;51761;42.126;24.752;2023-03-14T05:36:05;51.83;;;14.45;;
65174;SDS011;51761;42.126;24.752;2023-03-14T05:38:31;41.40;;;11.13;;
65174;SDS011;51761;42.126;24.752;2023-03-14T05:40:56;30.58;;;12.82;;
65174;SDS011;51761;42.126;24.752;2023-03-14T05:43:22;90.90;;;34.55;;
65174;SDS011;51761;42.126;24.752;2023-03-14T05:45:47;45.60;;;17.23;;
65174;SDS011;51761;42.126;24.752;2023-03-14T05:48:13;31.35;;;10.90;;
65174;SDS011;51761;42.126;24.752;2023-03-14T05:50:38;26.55;;;9.35;;
65174;SDS011;51761;42.126;24.752;2023-03-14T05:53:04;29.75;;;9.95;;
65174;SDS011;51761;42.126;24.752;2023-03-14T05:55:29;41.20;;;10.52;;
65174;SDS011;51761;42.126;24.752;2023-03-14T05:57:55;81.40;;;36.13;;
65174;SDS011;51761;42.126;24.752;2023-03-14T06:00:20;41.47;;;17.98;;
65174;SDS011;51761;42.126;24.752;2023-03-14T06:02:46;30.55;;;11.82;;
65174;SDS011;51761;42.126;24.752;2023-03-14T06:05:12;36.00;;;11.70;;
65174;SDS011;51761;42.126;24.752;2023-03-14T06:07:38;38.13;;;13.75;;
65174;SDS011;51761;42.126;24.752;2023-03-14T06:10:03;41.78;;;14.35;;
65174;SDS011;51761;42.126;24.752;2023-03-14T06:12:29;75.20;;;30.77;;
65174;SDS011;51761;42.126;24.752;2023-03-14T06:14:55;44.13;;;14.93;;
65174;SDS011;51761;42.126;24.752;2023-03-14T06:17:20;31.23;;;13.10;;
65174;SDS011;51761;42.126;24.752;2023-03-14T06:19:46;28.48;;;11.82;;
65174;SDS011;51761;42.126;24.752;2023-03-14T06:22:12;33.47;;;14.85;;
65174;SDS011;51761;42.126;24.752;2023-03-14T06:24:37;38.15;;;15.85;;
65174;SDS011;51761;42.126;24.752;2023-03-14T06:27:03;35.85;;;14.65;;
65174;SDS011;51761;42.126;24.752;2023-03-14T06:29:29;43.65;;;14.68;;
65174;SDS011;51761;42.126;24.752;2023-03-14T06:31:54;42.25;;;15.05;;
65174;SDS011;51761;42.126;24.752;2023-03-14T06:34:20;37.30;;;15.77;;
65174;SDS011;51761;42.126;24.752;2023-03-14T06:36:46;36.10;;;16.20;;
65174;SDS011;51761;42.126;24.752;2023-03-14T06:39:12;38.72;;;16.73;;
65174;SDS011;51761;42.126;24.752;2023-03-14T06:41:37;44.95;;;15.55;;
65174;SDS011;51761;42.126;24.752;2023-03-14T06:44:03;46.95;;;16.27;;
65174;SDS011;51761;42.126;24.752;2023-03-14T06:46:29;51.13;;;18.95;;
65174;SDS011;51761;42.126;24.752;2023-03-14T06:48:54;46.60;;;17.80;;
65174;SDS011;51761;42.126;24.752;2023-03-14T06:51:20;44.72;;;20.73;;
65174;SDS011;51761;42.126;24.752;2023-03-14T06:53:45;39.40;;;17.50;;
65174;SDS011;51761;42.126;24.752;2023-03-14T06:56:11;48.95;;;19.13;;
65174;SDS011;51761;42.126;24.752;2023-03-14T06:58:36;41.17;;;18.38;;
65174;SDS011;51761;42.126;24.752;2023-03-14T07:01:02;38.65;;;13.55;;
65174;SDS011;51761;42.126;24.752;2023-03-14T07:03:28;25.88;;;11.05;;
65174;SDS011;51761;42.126;24.752;2023-03-14T07:05:53;30.38;;;11.82;;
65174;SDS011;51761;42.126;24.752;2023-03-14T07:08:19;29.50;;;12.35;;
65174;SDS011;51761;42.126;24.752;2023-03-14T07:10:44;33.28;;;12.02;;
65174;SDS011;51761;42.126;24.752;2023-03-14T07:13:10;26.17;;;10.40;;
65174;SDS011;51761;42.126;24.752;2023-03-14T07:15:35;27.80;;;12.90;;
65174;SDS011;51761;42.126;24.752;2023-03-14T07:18:01;23.58;;;10.10;;
65174;SDS011;51761;42.126;24.752;2023-03-14T07:20:26;15.88;;;7.70;;
65174;SDS011;51761;42.126;24.752;2023-03-14T07:22:52;27.52;;;9.45;;
65174;SDS011;51761;42.126;24.752;2023-03-14T07:25:18;24.17;;;9.25;;
65174;SDS011;51761;42.126;24.752;2023-03-14T07:27:44;20.00;;;9.05;;
65174;SDS011;51761;42.126;24.752;2023-03-14T07:30:10;18.67;;;7.95;;
65174;SDS011;51761;42.126;24.752;2023-03-14T07:32:36;20.40;;;9.70;;
65174;SDS011;51761;42.126;24.752;2023-03-14T07:35:02;28.38;;;9.25;;
65174;SDS011;51761;42.126;24.752;2023-03-14T07:37:28;26.45;;;10.38;;
65174;SDS011;51761;42.126;24.752;2023-03-14T07:39:53;18.00;;;9.30;;
65174;SDS011;51761;42.126;24.752;2023-03-14T07:42:19;25.27;;;9.23;;
65174;SDS011;51761;42.126;24.752;2023-03-14T07:44:44;23.27;;;9.23;;
65174;SDS011;51761;42.126;24.752;2023-03-14T07:47:10;20.23;;;10.27;;
65174;SDS011;51761;42.126;24.752;2023-03-14T07:49:35;26.92;;;9.80;;
65174;SDS011;51761;42.126;24.752;2023-03-14T07:52:01;22.95;;;10.70;;
65174;SDS011;51761;42.126;24.752;2023-03-14T07:54:26;17.60;;;9.55;;
65174;SDS011;51761;42.126;24.752;2023-03-14T07:56:52;19.73;;;8.73;;
65174;SDS011;51761;42.126;24.752;2023-03-14T07:59:18;18.98;;;9.18;;
65174;SDS011;51761;42.126;24.752;2023-03-14T08:01:43;23.45;;;10.48;;
65174;SDS011;51761;42.126;24.752;2023-03-14T08:04:09;23.08;;;9.70;;
65174;SDS011;51761;42.126;24.752;2023-03-14T08:06:37;21.20;;;9.32;;
65174;SDS011;51761;42.126;24.752;2023-03-14T08:09:03;19.27;;;8.75;;
65174;SDS011;51761;42.126;24.752;2023-03-14T08:11:29;19.67;;;8.77;;
65174;SDS011;51761;42.126;24.752;2023-03-14T08:13:55;23.70;;;9.55;;
65174;SDS011;51761;42.126;24.752;2023-03-14T08:16:20;21.25;;;8.63;;
65174;SDS011;51761;42.126;24.752;2023-03-14T08:18:46;19.23;;;8.65;;
65174;SDS011;51761;42.126;24.752;2023-03-14T08:21:11;17.13;;;7.85;;
65174;SDS011;51761;42.126;24.752;2023-03-14T08:23:37;20.15;;;8.40;;
65174;SDS011;51761;42.126;24.752;2023-03-14T08:26:03;22.25;;;9.50;;
65174;SDS011;51761;42.126;24.752;2023-03-14T08:28:28;17.38;;;7.75;;
65174;SDS011;51761;42.126;24.752;2023-03-14T08:30:59;18.30;;;9.23;;
65174;SDS011;51761;42.126;24.752;2023-03-14T08:33:26;27.58;;;11.15;;
65174;SDS011;51761;42.126;24.752;2023-03-14T08:35:56;18.42;;;8.52;;
65174;SDS011;51761;42.126;24.752;2023-03-14T08:38:24;18.65;;;8.05;;
65174;SDS011;51761;42.126;24.752;2023-03-14T08:40:54;18.40;;;8.45;;
65174;SDS011;51761;42.126;24.752;2023-03-14T08:43:23;20.20;;;8.68;;
65174;SDS011;51761;42.126;24.752;2023-03-14T08:45:49;17.77;;;8.38;;
65174;SDS011;51761;42.126;24.752;2023-03-14T08:48:14;24.90;;;8.60;;
65174;SDS011;51761;42.126;24.752;2023-03-14T08:50:40;19.33;;;9.18;;
65174;SDS011;51761;42.126;24.752;2023-03-14T08:53:05;29.23;;;12.15;;
65174;SDS011;51761;42.126;24.752;2023-03-14T08:55:31;18.92;;;8.75;;
65174;SDS011;51761;42.126;24.752;2023-03-14T08:57:57;20.27;;;7.30;;
65174;SDS011;51761;42.126;24.752;2023-03-14T09:00:22;15.10;;;6.82;;
65174;SDS011;51761;42.126;24.752;2023-03-14T09:02:48;11.30;;;6.72;;
65174;SDS011;51761;42.126;24.752;2023-03-14T09:05:13;17.80;;;5.65;;
65174;SDS011;51761;42.126;24.752;2023-03-14T09:07:39;14.00;;;6.10;;
65174;SDS011;51761;42.126;24.752;2023-03-14T09:10:06;10.25;;;5.70;;
65174;SDS011;51761;42.126;24.752;2023-03-14T09:12:32;17.65;;;6.70;;
65174;SDS011;51761;42.126;24.752;2023-03-14T09:14:58;15.93;;;7.25;;
65174;SDS011;51761;42.126;24.752;2023-03-14T09:17:23;11.05;;;5.88;;
65174;SDS011;51761;42.126;24.752;2023-03-14T09:19:49;9.43;;;5.28;;
65174;SDS011;51761;42.126;24.752;2023-03-14T09:22:14;12.40;;;5.00;;
65174;SDS011;51761;42.126;24.752;2023-03-14T09:24:40;9.98;;;5.20;;
65174;SDS011;51761;42.126;24.752;2023-03-14T09:27:06;9.70;;;5.15;;
65174;SDS011;51761;42.126;24.752;2023-03-14T09:29:33;10.32;;;5.45;;
65174;SDS011;51761;42.126;24.752;2023-03-14T09:31:59;12.32;;;5.88;;
65174;SDS011;51761;42.126;24.752;2023-03-14T09:34:25;12.73;;;5.97;;
65174;SDS011;51761;42.126;24.752;2023-03-14T09:36:51;16.02;;;6.53;;
65174;SDS011;51761;42.126;24.752;2023-03-14T09:39:17;11.80;;;6.53;;
65174;SDS011;51761;42.126;24.752;2023-03-14T09:41:43;12.45;;;5.85;;
65174;SDS011;51761;42.126;24.752;2023-03-14T09:44:16;12.85;;;7.40;;
65174;SDS011;51761;42.126;24.752;2023-03-14T09:46:50;12.45;;;6.70;;
65174;SDS011;51761;42.126;24.752;2023-03-14T09:49:23;15.63;;;6.78;;
65174;SDS011;51761;42.126;24.752;2023-03-14T09:51:53;14.35;;;5.88;;
65174;SDS011;51761;42.126;24.752;2023-03-14T09:54:31;9.95;;;5.85;;
65174;SDS011;51761;42.126;24.752;2023-03-14T09:57:04;10.30;;;5.45;;
65174;SDS011;51761;42.126;24.752;2023-03-14T09:59:31;14.10;;;6.28;;
65174;SDS011;51761;42.126;24.752;2023-03-14T10:02:01;9.95;;;5.60;;
65174;SDS011;51761;42.126;24.752;2023-03-14T10:04:30;13.50;;;6.13;;
65174;SDS011;51761;42.126;24.752;2023-03-14T10:06:57;11.63;;;6.00;;
65174;SDS011;51761;42.126;24.752;2023-03-14T10:09:23;14.25;;;6.30;;
65174;SDS011;51761;42.126;24.752;2023-03-14T10:11:59;12.85;;;5.88;;
65174;SDS011;51761;42.126;24.752;2023-03-14T10:14:34;10.57;;;5.40;;
65174;SDS011;51761;42.126;24.752;2023-03-14T10:19:32;12.98;;;5.88;;
65174;SDS011;51761;42.126;24.752;2023-03-14T10:21:57;11.02;;;5.63;;
65174;SDS011;51761;42.126;24.752;2023-03-14T10:24:27;9.50;;;5.90;;
65174;SDS011;51761;42.126;24.752;2023-03-14T10:26:55;9.20;;;5.32;;
65174;SDS011;51761;42.126;24.752;2023-03-14T10:29:27;11.85;;;5.70;;
65174;SDS011;51761;42.126;24.752;2023-03-14T10:32:01;10.95;;;5.43;;
65174;SDS011;51761;42.126;24.752;2023-03-14T10:34:28;7.50;;;4.63;;
65174;SDS011;51761;42.126;24.752;2023-03-14T10:36:55;10.60;;;5.15;;
65174;SDS011;51761;42.126;24.752;2023-03-14T10:41:55;9.13;;;5.38;;
65174;SDS011;51761;42.126;24.752;2023-03-14T10:44:37;9.57;;;5.15;;
65174;SDS011;51761;42.126;24.752;2023-03-14T10:47:04;10.00;;;5.50;;
65174;SDS011;51761;42.126;24.752;2023-03-14T10:49:31;9.65;;;5.10;;
65174;SDS011;51761;42.126;24.752;2023-03-14T10:52:12;10.27;;;5.57;;
65174;SDS011;51761;42.126;24.752;2023-03-14T10:54:40;15.98;;;6.35;;
65174;SDS011;51761;42.126;24.752;2023-03-14T10:57:06;13.75;;;5.63;;
65174;SDS011;51761;42.126;24.752;2023-03-14T10:59:36;13.88;;;5.55;;
65174;SDS011;51761;42.126;24.752;2023-03-14T11:14:08;14.00;;;5.97;;
65174;SDS011;51761;42.126;24.752;2023-03-14T11:22:13;8.93;;;4.40;;
65174;SDS011;51761;42.126;24.752;2023-03-14T11:25:03;9.00;;;3.97;;
65174;SDS011;51761;42.126;24.752;2023-03-14T11:27:44;6.53;;;4.07;;
65174;SDS011;51761;42.126;24.752;2023-03-14T11:35:37;8.00;;;3.75;;
65174;SDS011;51761;42.126;24.752;2023-03-14T11:40:49;10.55;;;3.75;;
65174;SDS011;51761;42.126;24.752;2023-03-14T11:45:54;7.25;;;4.22;;
65174;SDS011;51761;42.126;24.752;2023-03-14T11:48:41;7.77;;;4.10;;
65174;SDS011;51761;42.126;24.752;2023-03-14T11:51:24;5.72;;;4.28;;
65174;SDS011;51761;42.126;24.752;2023-03-14T11:53:58;9.75;;;4.20;;
65174;SDS011;51761;42.126;24.752;2023-03-14T11:56:32;10.15;;;4.18;;
65174;SDS011;51761;42.126;24.752;2023-03-14T11:59:03;11.85;;;4.32;;
65174;SDS011;51761;42.126;24.752;2023-03-14T12:01:39;13.48;;;4.28;;
65174;SDS011;51761;42.126;24.752;2023-03-14T12:04:15;6.38;;;3.95;;
65174;SDS011;51761;42.126;24.752;2023-03-14T12:06:49;8.57;;;4.75;;
65174;SDS011;51761;42.126;24.752;2023-03-14T12:09:16;10.75;;;4.32;;
65174;SDS011;51761;42.126;24.752;2023-03-14T12:16:49;8.85;;;4.13;;
65174;SDS011;51761;42.126;24.752;2023-03-14T12:21:48;10.52;;;4.07;;
65174;SDS011;51761;42.126;24.752;2023-03-14T12:24:25;12.18;;;3.97;;
65174;SDS011;51761;42.126;24.752;2023-03-14T12:26:55;9.52;;;4.65;;
65174;SDS011;51761;42.126;24.752;2023-03-14T12:29:22;11.98;;;4.85;;
65174;SDS011;51761;42.126;24.752;2023-03-14T12:31:49;7.97;;;4.50;;
65174;SDS011;51761;42.126;24.752;2023-03-14T12:34:34;8.57;;;4.90;;
65174;SDS011;51761;42.126;24.752;2023-03-14T12:45:29;16.02;;;5.40;;
65174;SDS011;51761;42.126;24.752;2023-03-14T12:48:06;11.43;;;3.83;;
65174;SDS011;51761;42.126;24.752;2023-03-14T12:50:34;7.80;;;4.50;;
65174;SDS011;51761;42.126;24.752;2023-03-14T13:01:12;7.78;;;4.53;;
65174;SDS011;51761;42.126;24.752;2023-03-14T13:03:47;41.67;;;19.25;;
65174;SDS011;51761;42.126;24.752;2023-03-14T13:12:09;7.82;;;4.25;;
65174;SDS011;51761;42.126;24.752;2023-03-14T13:14:41;9.43;;;4.35;;
65174;SDS011;51761;42.126;24.752;2023-03-14T13:17:10;11.80;;;4.90;;
65174;SDS011;51761;42.126;24.752;2023-03-14T13:19:37;7.63;;;4.00;;
65174;SDS011;51761;42.126;24.752;2023-03-14T13:22:04;10.05;;;5.00;;
65174;SDS011;51761;42.126;24.752;2023-03-14T13:24:37;9.10;;;4.43;;
65174;SDS011;51761;42.126;24.752;2023-03-14T13:27:03;7.00;;;4.43;;
65174;SDS011;51761;42.126;24.752;2023-03-14T13:29:32;12.27;;;4.70;;
65174;SDS011;51761;42.126;24.752;2023-03-14T13:31:59;7.30;;;4.18;;
65174;SDS011;51761;42.126;24.752;2023-03-14T13:34:30;7.57;;;4.82;;
65174;SDS011;51761;42.126;24.752;2023-03-14T13:36:56;15.43;;;5.68;;
65174;SDS011;51761;42.126;24.752;2023-03-14T13:39:23;8.20;;;4.35;;
65174;SDS011;51761;42.126;24.752;2023-03-14T13:41:50;13.85;;;4.85;;
65174;SDS011;51761;42.126;24.752;2023-03-14T13:44:23;9.30;;;4.60;;
65174;SDS011;51761;42.126;24.752;2023-03-14T13:49:21;11.07;;;4.32;;
65174;SDS011;51761;42.126;24.752;2023-03-14T13:51:49;11.93;;;4.05;;
65174;SDS011;51761;42.126;24.752;2023-03-14T13:54:15;7.07;;;4.13;;
65174;SDS011;51761;42.126;24.752;2023-03-14T13:56:44;8.57;;;4.53;;
65174;SDS011;51761;42.126;24.752;2023-03-14T13:59:23;7.50;;;4.28;;
65174;SDS011;51761;42.126;24.752;2023-03-14T14:01:50;9.70;;;4.20;;
65174;SDS011;51761;42.126;24.752;2023-03-14T14:04:20;8.85;;;3.83;;
65174;SDS011;51761;42.126;24.752;2023-03-14T14:06:57;7.05;;;3.90;;
65174;SDS011;51761;42.126;24.752;2023-03-14T14:11:56;10.90;;;4.70;;
65174;SDS011;51761;42.126;24.752;2023-03-14T14:14:36;11.48;;;4.30;;
65174;SDS011;51761;42.126;24.752;2023-03-14T14:17:09;7.00;;;4.00;;
65174;SDS011;51761;42.126;24.752;2023-03-14T14:19:38;14.43;;;6.35;;
65174;SDS011;51761;42.126;24.752;2023-03-14T14:22:05;8.25;;;3.80;;
65174;SDS011;51761;42.126;24.752;2023-03-14T14:24:34;7.55;;;3.95;;
65174;SDS011;51761;42.126;24.752;2023-03-14T14:27:08;6.57;;;3.80;;
65174;SDS011;51761;42.126;24.752;2023-03-14T14:29:34;7.85;;;4.18;;
65174;SDS011;51761;42.126;24.752;2023-03-14T14:32:13;7.10;;;3.53;;
65174;SDS011;51761;42.126;24.752;2023-03-14T14:34:40;11.32;;;5.00;;
65174;SDS011;51761;42.126;24.752;2023-03-14T14:37:23;8.93;;;4.72;;
65174;SDS011;51761;42.126;24.752;2023-03-14T14:39:55;11.15;;;4.28;;
65174;SDS011;51761;42.126;24.752;2023-03-14T14:42:25;18.77;;;4.80;;
65174;SDS011;51761;42.126;24.752;2023-03-14T14:44:55;13.35;;;4.25;;
65174;SDS011;51761;42.126;24.752;2023-03-14T14:47:22;7.35;;;3.88;;
65174;SDS011;51761;42.126;24.752;2023-03-14T14:49:51;6.05;;;3.80;;
65174;SDS011;51761;42.126;24.752;2023-03-14T14:52:19;6.93;;;3.60;;
65174;SDS011;51761;42.126;24.752;2023-03-14T14:54:53;12.40;;;3.72;;
65174;SDS011;51761;42.126;24.752;2023-03-14T14:57:31;13.20;;;4.32;;
65174;SDS011;51761;42.126;24.752;2023-03-14T15:00:03;9.93;;;4.88;;
65174;SDS011;51761;42.126;24.752;2023-03-14T15:02:40;7.47;;;4.65;;
65174;SDS011;51761;42.126;24.752;2023-03-14T15:07:41;7.47;;;4.55;;
65174;SDS011;51761;42.126;24.752;2023-03-14T15:10:09;16.25;;;7.43;;
65174;SDS011;51761;42.126;24.752;2023-03-14T15:12:36;13.25;;;4.95;;
65174;SDS011;51761;42.126;24.752;2023-03-14T15:15:01;9.90;;;4.65;;
65174;SDS011;51761;42.126;24.752;2023-03-14T15:17:27;12.68;;;5.30;;
65174;SDS011;51761;42.126;24.752;2023-03-14T15:19:52;8.13;;;4.72;;
65174;SDS011;51761;42.126;24.752;2023-03-14T15:22:18;8.88;;;5.07;;
65174;SDS011;51761;42.126;24.752;2023-03-14T15:24:44;8.63;;;4.88;;
65174;SDS011;51761;42.126;24.752;2023-03-14T15:27:12;16.55;;;4.85;;
65174;SDS011;51761;42.126;24.752;2023-03-14T15:29:39;13.13;;;5.70;;
65174;SDS011;51761;42.126;24.752;2023-03-14T15:32:05;13.55;;;5.72;;
65174;SDS011;51761;42.126;24.752;2023-03-14T15:34:30;13.35;;;6.15;;
65174;SDS011;51761;42.126;24.752;2023-03-14T15:36:56;15.68;;;5.60;;
65174;SDS011;51761;42.126;24.752;2023-03-14T15:39:21;10.48;;;4.60;;
65174;SDS011;51761;42.126;24.752;2023-03-14T15:41:47;10.27;;;4.15;;
65174;SDS011;51761;42.126;24.752;2023-03-14T15:44:12;10.15;;;3.97;;
65174;SDS011;51761;42.126;24.752;2023-03-14T15:46:38;14.93;;;5.38;;
65174;SDS011;51761;42.126;24.752;2023-03-14T15:49:03;12.48;;;4.60;;
65174;SDS011;51761;42.126;24.752;2023-03-14T15:51:29;8.25;;;4.00;;
65174;SDS011;51761;42.126;24.752;2023-03-14T15:53:55;11.43;;;4.35;;
65174;SDS011;51761;42.126;24.752;2023-03-14T15:56:20;12.40;;;4.68;;
65174;SDS011;51761;42.126;24.752;2023-03-14T15:58:49;12.10;;;4.07;;